sensor_id;sensor_type;location;lat;lon;timestamp;P1;durP1;ratioP1;P2;durP2;ratioP2
8502;SDS011;4289;48.664;12.700;2023-06-22T00:02:34;0.00;;;0.00;;
8502;SDS011;4289;48.664;12.700;2023-06-22T00:05:57;0.00;;;0.00;;
8502;SDS011;4289;48.664;12.700;2023-06-22T00:09:22;0.00;;;0.00;;
8502;SDS011;4289;48.664;12.700;2023-06-22T00:12:45;0.00;;;0.00;;
8502;SDS011;4289;48.664;12.700;2023-06-22T00:16:07;0.00;;;0.00;;
8502;SDS011;4289;48.664;12.700;2023-06-22T00:19:30;0.00;;;0.00;;
8502;SDS011;4289;48.664;12.700;2023-06-22T00:22:55;0.00;;;0.00;;
8502;SDS011;4289;48.664;12.700;2023-06-22T00:26:19;0.00;;;0.00;;
8502;SDS011;4289;48.664;12.700;2023-06-22T00:29:41;0.00;;;0.00;;
8502;SDS011;4289;48.664;12.700;2023-06-22T00:33:04;0.00;;;0.00;;
8502;SDS011;4289;48.664;12.700;2023-06-22T00:36:27;0.00;;;0.00;;
8502;SDS011;4289;48.664;12.700;2023-06-22T00:39:50;0.00;;;0.00;;
8502;SDS011;4289;48.664;12.700;2023-06-22T00:43:14;0.00;;;0.00;;
8502;SDS011;4289;48.664;12.700;2023-06-22T00:46:37;0.00;;;0.00;;
8502;SDS011;4289;48.664;12.700;2023-06-22T00:50:00;0.00;;;0.00;;
8502;SDS011;4289;48.664;12.700;2023-06-22T00:53:23;0.00;;;0.00;;
8502;SDS011;4289;48.664;12.700;2023-06-22T00:56:45;0.00;;;0.00;;
8502;SDS011;4289;48.664;12.700;2023-06-22T01:00:11;0.00;;;0.00;;
8502;SDS011;4289;48.664;12.700;2023-06-22T01:03:37;0.00;;;0.00;;
8502;SDS011;4289;48.664;12.700;2023-06-22T01:07:01;0.00;;;0.00;;
8502;SDS011;4289;48.664;12.700;2023-06-22T01:10:29;0.00;;;0.00;;
8502;SDS011;4289;48.664;12.700;2023-06-22T01:13:57;0.00;;;0.00;;
8502;SDS011;4289;48.664;12.700;2023-06-22T01:17:26;0.00;;;0.00;;
8502;SDS011;4289;48.664;12.700;2023-06-22T01:20:49;0.00;;;0.00;;
8502;SDS011;4289;48.664;12.700;2023-06-22T01:24:15;0.00;;;0.00;;
8502;SDS011;4289;48.664;12.700;2023-06-22T01:27:47;0.00;;;0.00;;
8502;SDS011;4289;48.664;12.700;2023-06-22T01:31:17;0.00;;;0.00;;
8502;SDS011;4289;48.664;12.700;2023-06-22T01:34:40;0.00;;;0.00;;
8502;SDS011;4289;48.664;12.700;2023-06-22T01:38:04;0.00;;;0.00;;
8502;SDS011;4289;48.664;12.700;2023-06-22T01:41:27;0.00;;;0.00;;
8502;SDS011;4289;48.664;12.700;2023-06-22T01:44:50;0.00;;;0.00;;
8502;SDS011;4289;48.664;12.700;2023-06-22T01:48:14;0.00;;;0.00;;
8502;SDS011;4289;48.664;12.700;2023-06-22T01:51:37;0.00;;;0.00;;
8502;SDS011;4289;48.664;12.700;2023-06-22T01:55:00;0.00;;;0.00;;
8502;SDS011;4289;48.664;12.700;2023-06-22T01:58:24;0.00;;;0.00;;
8502;SDS011;4289;48.664;12.700;2023-06-22T02:01:50;0.00;;;0.00;;
8502;SDS011;4289;48.664;12.700;2023-06-22T02:05:16;0.00;;;0.00;;
8502;SDS011;4289;48.664;12.700;2023-06-22T02:08:41;0.00;;;0.00;;
8502;SDS011;4289;48.664;12.700;2023-06-22T02:12:07;0.00;;;0.00;;
8502;SDS011;4289;48.664;12.700;2023-06-22T02:15:30;0.00;;;0.00;;
8502;SDS011;4289;48.664;12.700;2023-06-22T02:18:53;0.00;;;0.00;;
8502;SDS011;4289;48.664;12.700;2023-06-22T02:22:23;0.00;;;0.00;;
8502;SDS011;4289;48.664;12.700;2023-06-22T02:25:45;0.00;;;0.00;;
8502;SDS011;4289;48.664;12.700;2023-06-22T02:29:08;0.00;;;0.00;;
8502;SDS011;4289;48.664;12.700;2023-06-22T02:32:30;0.00;;;0.00;;
8502;SDS011;4289;48.664;12.700;2023-06-22T02:35:55;0.00;;;0.00;;
8502;SDS011;4289;48.664;12.700;2023-06-22T02:39:21;0.00;;;0.00;;
8502;SDS011;4289;48.664;12.700;2023-06-22T02:42:45;0.00;;;0.00;;
8502;SDS011;4289;48.664;12.700;2023-06-22T02:46:07;0.00;;;0.00;;
8502;SDS011;4289;48.664;12.700;2023-06-22T02:49:30;0.00;;;0.00;;
8502;SDS011;4289;48.664;12.700;2023-06-22T02:52:52;0.00;;;0.00;;
8502;SDS011;4289;48.664;12.700;2023-06-22T02:56:16;0.00;;;0.00;;
8502;SDS011;4289;48.664;12.700;2023-06-22T02:59:44;0.00;;;0.00;;
8502;SDS011;4289;48.664;12.700;2023-06-22T03:03:07;0.00;;;0.00;;
8502;SDS011;4289;48.664;12.700;2023-06-22T03:06:30;0.00;;;0.00;;
8502;SDS011;4289;48.664;12.700;2023-06-22T03:09:53;0.00;;;0.00;;
8502;SDS011;4289;48.664;12.700;2023-06-22T03:13:16;0.00;;;0.00;;
8502;SDS011;4289;48.664;12.700;2023-06-22T03:16:39;0.00;;;0.00;;
8502;SDS011;4289;48.664;12.700;2023-06-22T03:20:01;0.00;;;0.00;;
8502;SDS011;4289;48.664;12.700;2023-06-22T03:23:28;0.00;;;0.00;;
8502;SDS011;4289;48.664;12.700;2023-06-22T03:26:51;0.00;;;0.00;;
8502;SDS011;4289;48.664;12.700;2023-06-22T03:30:16;0.00;;;0.00;;
8502;SDS011;4289;48.664;12.700;2023-06-22T03:33:39;0.00;;;0.00;;
8502;SDS011;4289;48.664;12.700;2023-06-22T03:37:01;0.00;;;0.00;;
8502;SDS011;4289;48.664;12.700;2023-06-22T03:40:24;0.00;;;0.00;;
8502;SDS011;4289;48.664;12.700;2023-06-22T03:43:47;0.00;;;0.00;;
8502;SDS011;4289;48.664;12.700;2023-06-22T03:47:10;0.00;;;0.00;;
8502;SDS011;4289;48.664;12.700;2023-06-22T03:50:33;0.00;;;0.00;;
8502;SDS011;4289;48.664;12.700;2023-06-22T03:53:55;0.00;;;0.00;;
8502;SDS011;4289;48.664;12.700;2023-06-22T03:57:18;0.00;;;0.00;;
8502;SDS011;4289;48.664;12.700;2023-06-22T04:00:40;0.00;;;0.00;;
8502;SDS011;4289;48.664;12.700;2023-06-22T04:04:05;0.00;;;0.00;;
8502;SDS011;4289;48.664;12.700;2023-06-22T04:07:27;0.03;;;0.03;;
8502;SDS011;4289;48.664;12.700;2023-06-22T04:10:50;0.00;;;0.00;;
8502;SDS011;4289;48.664;12.700;2023-06-22T04:14:13;0.00;;;0.00;;
8502;SDS011;4289;48.664;12.700;2023-06-22T04:17:36;0.00;;;0.00;;
8502;SDS011;4289;48.664;12.700;2023-06-22T04:20:59;0.00;;;0.00;;
8502;SDS011;4289;48.664;12.700;2023-06-22T04:24:22;0.00;;;0.00;;
8502;SDS011;4289;48.664;12.700;2023-06-22T04:27:45;0.03;;;0.03;;
8502;SDS011;4289;48.664;12.700;2023-06-22T04:31:08;0.00;;;0.00;;
8502;SDS011;4289;48.664;12.700;2023-06-22T04:34:31;0.00;;;0.00;;
8502;SDS011;4289;48.664;12.700;2023-06-22T04:37:57;0.00;;;0.00;;
8502;SDS011;4289;48.664;12.700;2023-06-22T04:41:20;0.00;;;0.00;;
8502;SDS011;4289;48.664;12.700;2023-06-22T04:44:43;0.05;;;0.05;;
8502;SDS011;4289;48.664;12.700;2023-06-22T04:48:06;0.00;;;0.00;;
8502;SDS011;4289;48.664;12.700;2023-06-22T04:51:29;0.00;;;0.00;;
8502;SDS011;4289;48.664;12.700;2023-06-22T04:54:53;0.03;;;0.03;;
8502;SDS011;4289;48.664;12.700;2023-06-22T04:58:19;0.00;;;0.00;;
8502;SDS011;4289;48.664;12.700;2023-06-22T05:01:42;0.00;;;0.00;;
8502;SDS011;4289;48.664;12.700;2023-06-22T05:05:05;0.10;;;0.10;;
8502;SDS011;4289;48.664;12.700;2023-06-22T05:08:28;0.00;;;0.00;;
8502;SDS011;4289;48.664;12.700;2023-06-22T05:11:52;0.00;;;0.00;;
8502;SDS011;4289;48.664;12.700;2023-06-22T05:15:14;0.03;;;0.03;;
8502;SDS011;4289;48.664;12.700;2023-06-22T05:18:39;0.00;;;0.00;;
8502;SDS011;4289;48.664;12.700;2023-06-22T05:22:03;0.08;;;0.08;;
8502;SDS011;4289;48.664;12.700;2023-06-22T05:25:26;0.03;;;0.03;;
8502;SDS011;4289;48.664;12.700;2023-06-22T05:28:51;0.00;;;0.00;;
8502;SDS011;4289;48.664;12.700;2023-06-22T05:32:14;0.10;;;0.10;;
8502;SDS011;4289;48.664;12.700;2023-06-22T05:35:36;0.10;;;0.10;;
8502;SDS011;4289;48.664;12.700;2023-06-22T05:38:58;0.08;;;0.08;;
8502;SDS011;4289;48.664;12.700;2023-06-22T05:42:21;0.00;;;0.00;;
8502;SDS011;4289;48.664;12.700;2023-06-22T05:45:47;0.00;;;0.00;;
8502;SDS011;4289;48.664;12.700;2023-06-22T05:49:09;0.00;;;0.00;;
8502;SDS011;4289;48.664;12.700;2023-06-22T05:52:32;0.10;;;0.10;;
8502;SDS011;4289;48.664;12.700;2023-06-22T05:55:55;0.00;;;0.00;;
8502;SDS011;4289;48.664;12.700;2023-06-22T05:59:17;0.00;;;0.00;;
8502;SDS011;4289;48.664;12.700;2023-06-22T06:02:41;0.10;;;0.10;;
8502;SDS011;4289;48.664;12.700;2023-06-22T06:06:04;0.10;;;0.10;;
8502;SDS011;4289;48.664;12.700;2023-06-22T06:09:28;0.08;;;0.08;;
8502;SDS011;4289;48.664;12.700;2023-06-22T06:12:50;0.10;;;0.10;;
8502;SDS011;4289;48.664;12.700;2023-06-22T06:16:13;0.00;;;0.00;;
8502;SDS011;4289;48.664;12.700;2023-06-22T06:19:37;0.10;;;0.10;;
8502;SDS011;4289;48.664;12.700;2023-06-22T06:22:59;0.10;;;0.10;;
8502;SDS011;4289;48.664;12.700;2023-06-22T06:26:21;0.10;;;0.10;;
8502;SDS011;4289;48.664;12.700;2023-06-22T06:29:49;0.00;;;0.00;;
8502;SDS011;4289;48.664;12.700;2023-06-22T06:33:12;0.10;;;0.10;;
8502;SDS011;4289;48.664;12.700;2023-06-22T06:36:36;0.10;;;0.10;;
8502;SDS011;4289;48.664;12.700;2023-06-22T06:39:58;0.10;;;0.10;;
8502;SDS011;4289;48.664;12.700;2023-06-22T06:43:21;0.05;;;0.05;;
8502;SDS011;4289;48.664;12.700;2023-06-22T06:46:43;0.10;;;0.10;;
8502;SDS011;4289;48.664;12.700;2023-06-22T06:50:06;0.10;;;0.10;;
8502;SDS011;4289;48.664;12.700;2023-06-22T06:53:31;0.10;;;0.10;;
8502;SDS011;4289;48.664;12.700;2023-06-22T06:56:53;0.10;;;0.10;;
8502;SDS011;4289;48.664;12.700;2023-06-22T07:00:17;0.10;;;0.10;;
8502;SDS011;4289;48.664;12.700;2023-06-22T07:03:40;0.10;;;0.10;;
8502;SDS011;4289;48.664;12.700;2023-06-22T07:07:04;0.00;;;0.00;;
8502;SDS011;4289;48.664;12.700;2023-06-22T07:10:28;0.10;;;0.10;;
8502;SDS011;4289;48.664;12.700;2023-06-22T07:13:53;0.05;;;0.05;;
8502;SDS011;4289;48.664;12.700;2023-06-22T07:17:15;0.10;;;0.10;;
8502;SDS011;4289;48.664;12.700;2023-06-22T07:20:37;0.10;;;0.10;;
8502;SDS011;4289;48.664;12.700;2023-06-22T07:24:01;0.10;;;0.10;;
8502;SDS011;4289;48.664;12.700;2023-06-22T07:27:27;0.10;;;0.10;;
8502;SDS011;4289;48.664;12.700;2023-06-22T07:30:55;0.10;;;0.10;;
8502;SDS011;4289;48.664;12.700;2023-06-22T07:34:17;0.10;;;0.10;;
8502;SDS011;4289;48.664;12.700;2023-06-22T07:37:40;0.10;;;0.10;;
8502;SDS011;4289;48.664;12.700;2023-06-22T07:41:02;0.10;;;0.10;;
8502;SDS011;4289;48.664;12.700;2023-06-22T07:44:27;0.10;;;0.10;;
8502;SDS011;4289;48.664;12.700;2023-06-22T07:47:50;0.10;;;0.10;;
8502;SDS011;4289;48.664;12.700;2023-06-22T07:51:12;0.10;;;0.10;;
8502;SDS011;4289;48.664;12.700;2023-06-22T07:54:35;0.10;;;0.10;;
8502;SDS011;4289;48.664;12.700;2023-06-22T07:57:57;0.10;;;0.10;;
8502;SDS011;4289;48.664;12.700;2023-06-22T08:01:21;0.10;;;0.10;;
8502;SDS011;4289;48.664;12.700;2023-06-22T08:04:44;0.10;;;0.10;;
8502;SDS011;4289;48.664;12.700;2023-06-22T08:08:06;0.10;;;0.10;;
8502;SDS011;4289;48.664;12.700;2023-06-22T08:11:28;0.10;;;0.10;;
8502;SDS011;4289;48.664;12.700;2023-06-22T08:14:51;0.10;;;0.10;;
8502;SDS011;4289;48.664;12.700;2023-06-22T08:18:15;0.10;;;0.10;;
8502;SDS011;4289;48.664;12.700;2023-06-22T08:21:37;0.10;;;0.10;;
8502;SDS011;4289;48.664;12.700;2023-06-22T08:24:59;0.10;;;0.10;;
8502;SDS011;4289;48.664;12.700;2023-06-22T08:28:22;0.10;;;0.10;;
8502;SDS011;4289;48.664;12.700;2023-06-22T08:31:45;0.10;;;0.10;;
8502;SDS011;4289;48.664;12.700;2023-06-22T08:35:09;0.10;;;0.10;;
8502;SDS011;4289;48.664;12.700;2023-06-22T08:38:31;0.10;;;0.10;;
8502;SDS011;4289;48.664;12.700;2023-06-22T08:41:54;0.10;;;0.10;;
8502;SDS011;4289;48.664;12.700;2023-06-22T08:45:16;0.10;;;0.10;;
8502;SDS011;4289;48.664;12.700;2023-06-22T08:48:39;0.10;;;0.10;;
8502;SDS011;4289;48.664;12.700;2023-06-22T08:52:03;0.10;;;0.10;;
8502;SDS011;4289;48.664;12.700;2023-06-22T08:55:26;0.10;;;0.10;;
8502;SDS011;4289;48.664;12.700;2023-06-22T08:58:48;0.10;;;0.10;;
8502;SDS011;4289;48.664;12.700;2023-06-22T09:02:10;0.10;;;0.10;;
8502;SDS011;4289;48.664;12.700;2023-06-22T09:05:33;0.10;;;0.10;;
8502;SDS011;4289;48.664;12.700;2023-06-22T09:08:57;0.10;;;0.10;;
8502;SDS011;4289;48.664;12.700;2023-06-22T09:12:20;0.10;;;0.10;;
8502;SDS011;4289;48.664;12.700;2023-06-22T09:15:45;0.10;;;0.10;;
8502;SDS011;4289;48.664;12.700;2023-06-22T09:19:08;0.10;;;0.10;;
8502;SDS011;4289;48.664;12.700;2023-06-22T09:22:31;0.10;;;0.10;;
8502;SDS011;4289;48.664;12.700;2023-06-22T09:25:56;0.10;;;0.10;;
8502;SDS011;4289;48.664;12.700;2023-06-22T09:29:18;0.10;;;0.10;;
8502;SDS011;4289;48.664;12.700;2023-06-22T09:32:41;0.10;;;0.10;;
8502;SDS011;4289;48.664;12.700;2023-06-22T09:36:04;0.10;;;0.10;;
8502;SDS011;4289;48.664;12.700;2023-06-22T09:39:28;0.10;;;0.10;;
8502;SDS011;4289;48.664;12.700;2023-06-22T09:42:52;0.10;;;0.10;;
8502;SDS011;4289;48.664;12.700;2023-06-22T09:46:14;0.10;;;0.10;;
8502;SDS011;4289;48.664;12.700;2023-06-22T09:49:37;0.10;;;0.10;;
8502;SDS011;4289;48.664;12.700;2023-06-22T09:52:59;0.10;;;0.10;;
8502;SDS011;4289;48.664;12.700;2023-06-22T09:56:22;0.10;;;0.10;;
8502;SDS011;4289;48.664;12.700;2023-06-22T09:59:46;0.10;;;0.10;;
8502;SDS011;4289;48.664;12.700;2023-06-22T10:03:11;0.10;;;0.10;;
8502;SDS011;4289;48.664;12.700;2023-06-22T10:06:33;0.10;;;0.10;;
8502;SDS011;4289;48.664;12.700;2023-06-22T10:09:55;0.10;;;0.10;;
8502;SDS011;4289;48.664;12.700;2023-06-22T10:13:18;0.10;;;0.10;;
8502;SDS011;4289;48.664;12.700;2023-06-22T10:16:42;0.10;;;0.10;;
8502;SDS011;4289;48.664;12.700;2023-06-22T10:20:04;0.10;;;0.10;;
8502;SDS011;4289;48.664;12.700;2023-06-22T10:23:31;0.10;;;0.10;;
8502;SDS011;4289;48.664;12.700;2023-06-22T10:26:54;0.10;;;0.10;;
8502;SDS011;4289;48.664;12.700;2023-06-22T10:30:16;0.10;;;0.10;;
8502;SDS011;4289;48.664;12.700;2023-06-22T10:33:40;0.10;;;0.10;;
8502;SDS011;4289;48.664;12.700;2023-06-22T10:37:04;0.10;;;0.10;;
8502;SDS011;4289;48.664;12.700;2023-06-22T10:40:27;0.10;;;0.10;;
8502;SDS011;4289;48.664;12.700;2023-06-22T10:43:49;0.10;;;0.10;;
8502;SDS011;4289;48.664;12.700;2023-06-22T10:47:11;0.10;;;0.10;;
8502;SDS011;4289;48.664;12.700;2023-06-22T10:50:35;0.10;;;0.10;;
8502;SDS011;4289;48.664;12.700;2023-06-22T10:53:57;0.10;;;0.10;;
8502;SDS011;4289;48.664;12.700;2023-06-22T10:57:20;0.10;;;0.10;;
8502;SDS011;4289;48.664;12.700;2023-06-22T11:00:43;0.10;;;0.10;;
8502;SDS011;4289;48.664;12.700;2023-06-22T11:04:05;0.10;;;0.10;;
8502;SDS011;4289;48.664;12.700;2023-06-22T11:07:29;0.10;;;0.10;;
8502;SDS011;4289;48.664;12.700;2023-06-22T11:10:52;0.10;;;0.10;;
8502;SDS011;4289;48.664;12.700;2023-06-22T11:14:15;0.10;;;0.10;;
8502;SDS011;4289;48.664;12.700;2023-06-22T11:17:37;0.10;;;0.10;;
8502;SDS011;4289;48.664;12.700;2023-06-22T11:21:00;0.10;;;0.10;;
8502;SDS011;4289;48.664;12.700;2023-06-22T11:24:24;0.10;;;0.10;;
8502;SDS011;4289;48.664;12.700;2023-06-22T11:27:46;0.10;;;0.10;;
8502;SDS011;4289;48.664;12.700;2023-06-22T11:31:09;0.10;;;0.10;;
8502;SDS011;4289;48.664;12.700;2023-06-22T11:34:31;0.10;;;0.10;;
8502;SDS011;4289;48.664;12.700;2023-06-22T11:37:53;0.10;;;0.10;;
8502;SDS011;4289;48.664;12.700;2023-06-22T11:41:19;0.10;;;0.10;;
8502;SDS011;4289;48.664;12.700;2023-06-22T11:44:42;0.10;;;0.10;;
8502;SDS011;4289;48.664;12.700;2023-06-22T11:48:05;0.10;;;0.10;;
8502;SDS011;4289;48.664;12.700;2023-06-22T11:51:27;0.10;;;0.10;;
8502;SDS011;4289;48.664;12.700;2023-06-22T11:54:51;0.10;;;0.10;;
8502;SDS011;4289;48.664;12.700;2023-06-22T11:58:15;0.10;;;0.10;;
8502;SDS011;4289;48.664;12.700;2023-06-22T12:01:37;0.10;;;0.10;;
8502;SDS011;4289;48.664;12.700;2023-06-22T12:04:59;0.10;;;0.10;;
8502;SDS011;4289;48.664;12.700;2023-06-22T12:08:24;0.10;;;0.10;;
8502;SDS011;4289;48.664;12.700;2023-06-22T12:11:47;0.10;;;0.10;;
8502;SDS011;4289;48.664;12.700;2023-06-22T12:15:11;0.10;;;0.10;;
8502;SDS011;4289;48.664;12.700;2023-06-22T12:18:33;0.10;;;0.10;;
8502;SDS011;4289;48.664;12.700;2023-06-22T12:21:55;0.10;;;0.10;;
8502;SDS011;4289;48.664;12.700;2023-06-22T12:25:18;0.10;;;0.10;;
8502;SDS011;4289;48.664;12.700;2023-06-22T12:28:40;0.10;;;0.10;;
8502;SDS011;4289;48.664;12.700;2023-06-22T12:32:04;0.10;;;0.10;;
8502;SDS011;4289;48.664;12.700;2023-06-22T12:35:27;0.10;;;0.10;;
8502;SDS011;4289;48.664;12.700;2023-06-22T12:38:49;0.10;;;0.10;;
8502;SDS011;4289;48.664;12.700;2023-06-22T12:42:13;0.10;;;0.10;;
8502;SDS011;4289;48.664;12.700;2023-06-22T12:45:35;0.10;;;0.10;;
8502;SDS011;4289;48.664;12.700;2023-06-22T12:48:59;0.10;;;0.10;;
8502;SDS011;4289;48.664;12.700;2023-06-22T12:52:21;0.10;;;0.10;;
8502;SDS011;4289;48.664;12.700;2023-06-22T12:55:44;0.20;;;0.20;;
8502;SDS011;4289;48.664;12.700;2023-06-22T12:59:06;0.10;;;0.10;;
8502;SDS011;4289;48.664;12.700;2023-06-22T13:02:28;0.10;;;0.10;;
8502;SDS011;4289;48.664;12.700;2023-06-22T13:05:52;0.10;;;0.10;;
8502;SDS011;4289;48.664;12.700;2023-06-22T13:09:15;0.10;;;0.10;;
8502;SDS011;4289;48.664;12.700;2023-06-22T13:12:39;0.10;;;0.10;;
8502;SDS011;4289;48.664;12.700;2023-06-22T13:16:01;0.10;;;0.10;;
8502;SDS011;4289;48.664;12.700;2023-06-22T13:19:23;0.10;;;0.10;;
8502;SDS011;4289;48.664;12.700;2023-06-22T13:22:50;0.10;;;0.10;;
8502;SDS011;4289;48.664;12.700;2023-06-22T13:26:13;0.10;;;0.10;;
8502;SDS011;4289;48.664;12.700;2023-06-22T13:29:36;0.10;;;0.10;;
8502;SDS011;4289;48.664;12.700;2023-06-22T13:32:58;0.10;;;0.10;;
8502;SDS011;4289;48.664;12.700;2023-06-22T13:36:20;0.10;;;0.10;;
8502;SDS011;4289;48.664;12.700;2023-06-22T13:39:44;0.10;;;0.10;;
8502;SDS011;4289;48.664;12.700;2023-06-22T13:43:07;0.10;;;0.10;;
8502;SDS011;4289;48.664;12.700;2023-06-22T13:46:29;0.10;;;0.10;;
8502;SDS011;4289;48.664;12.700;2023-06-22T13:49:52;0.10;;;0.10;;
8502;SDS011;4289;48.664;12.700;2023-06-22T13:53:14;0.10;;;0.10;;
8502;SDS011;4289;48.664;12.700;2023-06-22T13:56:38;0.10;;;0.10;;
8502;SDS011;4289;48.664;12.700;2023-06-22T14:00:00;0.20;;;0.20;;
8502;SDS011;4289;48.664;12.700;2023-06-22T14:03:23;0.20;;;0.20;;
8502;SDS011;4289;48.664;12.700;2023-06-22T14:06:46;0.20;;;0.20;;
8502;SDS011;4289;48.664;12.700;2023-06-22T14:10:09;0.20;;;0.20;;
8502;SDS011;4289;48.664;12.700;2023-06-22T14:13:34;0.20;;;0.20;;
8502;SDS011;4289;48.664;12.700;2023-06-22T14:16:56;0.10;;;0.10;;
8502;SDS011;4289;48.664;12.700;2023-06-22T14:20:19;0.10;;;0.10;;
8502;SDS011;4289;48.664;12.700;2023-06-22T14:23:41;0.10;;;0.10;;
8502;SDS011;4289;48.664;12.700;2023-06-22T14:27:09;0.10;;;0.10;;
8502;SDS011;4289;48.664;12.700;2023-06-22T14:30:32;0.10;;;0.10;;
8502;SDS011;4289;48.664;12.700;2023-06-22T14:33:55;0.10;;;0.10;;
8502;SDS011;4289;48.664;12.700;2023-06-22T14:37:17;0.10;;;0.10;;
8502;SDS011;4289;48.664;12.700;2023-06-22T14:40:40;0.10;;;0.10;;
8502;SDS011;4289;48.664;12.700;2023-06-22T14:44:02;0.10;;;0.10;;
8502;SDS011;4289;48.664;12.700;2023-06-22T14:47:26;0.10;;;0.10;;
8502;SDS011;4289;48.664;12.700;2023-06-22T14:50:48;0.10;;;0.10;;
8502;SDS011;4289;48.664;12.700;2023-06-22T14:54:11;0.10;;;0.10;;
8502;SDS011;4289;48.664;12.700;2023-06-22T14:57:33;0.10;;;0.10;;
8502;SDS011;4289;48.664;12.700;2023-06-22T15:00:55;0.10;;;0.10;;
8502;SDS011;4289;48.664;12.700;2023-06-22T15:04:19;0.17;;;0.17;;
8502;SDS011;4289;48.664;12.700;2023-06-22T15:07:42;0.20;;;0.20;;
8502;SDS011;4289;48.664;12.700;2023-06-22T15:11:05;0.20;;;0.20;;
8502;SDS011;4289;48.664;12.700;2023-06-22T15:14:28;0.20;;;0.20;;
8502;SDS011;4289;48.664;12.700;2023-06-22T15:17:51;0.20;;;0.20;;
8502;SDS011;4289;48.664;12.700;2023-06-22T15:21:15;0.20;;;0.20;;
8502;SDS011;4289;48.664;12.700;2023-06-22T15:24:38;0.20;;;0.20;;
8502;SDS011;4289;48.664;12.700;2023-06-22T15:28:00;0.20;;;0.20;;
8502;SDS011;4289;48.664;12.700;2023-06-22T15:31:22;0.20;;;0.20;;
8502;SDS011;4289;48.664;12.700;2023-06-22T15:34:45;0.20;;;0.20;;
8502;SDS011;4289;48.664;12.700;2023-06-22T15:38:11;0.10;;;0.10;;
8502;SDS011;4289;48.664;12.700;2023-06-22T15:41:33;0.20;;;0.20;;
8502;SDS011;4289;48.664;12.700;2023-06-22T15:44:56;0.20;;;0.20;;
8502;SDS011;4289;48.664;12.700;2023-06-22T15:48:18;0.20;;;0.20;;
8502;SDS011;4289;48.664;12.700;2023-06-22T15:51:41;0.20;;;0.20;;
8502;SDS011;4289;48.664;12.700;2023-06-22T15:55:06;0.20;;;0.20;;
8502;SDS011;4289;48.664;12.700;2023-06-22T15:58:30;0.20;;;0.20;;
8502;SDS011;4289;48.664;12.700;2023-06-22T16:01:53;0.20;;;0.20;;
8502;SDS011;4289;48.664;12.700;2023-06-22T16:05:16;0.20;;;0.20;;
8502;SDS011;4289;48.664;12.700;2023-06-22T16:08:38;0.20;;;0.20;;
8502;SDS011;4289;48.664;12.700;2023-06-22T16:12:02;0.20;;;0.20;;
8502;SDS011;4289;48.664;12.700;2023-06-22T16:15:26;0.20;;;0.20;;
8502;SDS011;4289;48.664;12.700;2023-06-22T16:18:48;0.20;;;0.20;;
8502;SDS011;4289;48.664;12.700;2023-06-22T16:22:11;0.20;;;0.20;;
8502;SDS011;4289;48.664;12.700;2023-06-22T16:25:34;0.20;;;0.20;;
8502;SDS011;4289;48.664;12.700;2023-06-22T16:28:58;0.20;;;0.20;;
8502;SDS011;4289;48.664;12.700;2023-06-22T16:32:21;0.20;;;0.20;;
8502;SDS011;4289;48.664;12.700;2023-06-22T16:35:45;0.20;;;0.20;;
8502;SDS011;4289;48.664;12.700;2023-06-22T16:39:08;0.20;;;0.20;;
8502;SDS011;4289;48.664;12.700;2023-06-22T16:42:31;0.20;;;0.20;;
8502;SDS011;4289;48.664;12.700;2023-06-22T16:45:56;0.20;;;0.20;;
8502;SDS011;4289;48.664;12.700;2023-06-22T16:49:19;0.20;;;0.20;;
8502;SDS011;4289;48.664;12.700;2023-06-22T16:52:42;0.20;;;0.20;;
8502;SDS011;4289;48.664;12.700;2023-06-22T16:56:06;0.20;;;0.20;;
8502;SDS011;4289;48.664;12.700;2023-06-22T16:59:29;0.20;;;0.20;;
8502;SDS011;4289;48.664;12.700;2023-06-22T17:02:53;0.20;;;0.20;;
8502;SDS011;4289;48.664;12.700;2023-06-22T17:06:17;0.20;;;0.20;;
8502;SDS011;4289;48.664;12.700;2023-06-22T17:09:42;0.20;;;0.20;;
8502;SDS011;4289;48.664;12.700;2023-06-22T17:13:06;0.20;;;0.20;;
8502;SDS011;4289;48.664;12.700;2023-06-22T17:16:29;0.10;;;0.10;;
8502;SDS011;4289;48.664;12.700;2023-06-22T17:19:55;0.20;;;0.20;;
8502;SDS011;4289;48.664;12.700;2023-06-22T17:23:17;0.20;;;0.20;;
8502;SDS011;4289;48.664;12.700;2023-06-22T17:26:40;0.20;;;0.20;;
8502;SDS011;4289;48.664;12.700;2023-06-22T17:30:03;0.10;;;0.10;;
8502;SDS011;4289;48.664;12.700;2023-06-22T17:33:27;0.10;;;0.10;;
8502;SDS011;4289;48.664;12.700;2023-06-22T17:36:51;0.10;;;0.10;;
8502;SDS011;4289;48.664;12.700;2023-06-22T17:40:14;0.10;;;0.10;;
8502;SDS011;4289;48.664;12.700;2023-06-22T17:43:44;0.10;;;0.10;;
8502;SDS011;4289;48.664;12.700;2023-06-22T17:47:07;0.10;;;0.10;;
8502;SDS011;4289;48.664;12.700;2023-06-22T17:50:29;0.10;;;0.10;;
8502;SDS011;4289;48.664;12.700;2023-06-22T17:53:54;0.10;;;0.10;;
8502;SDS011;4289;48.664;12.700;2023-06-22T17:57:18;0.10;;;0.10;;
8502;SDS011;4289;48.664;12.700;2023-06-22T18:00:40;0.10;;;0.10;;
8502;SDS011;4289;48.664;12.700;2023-06-22T18:04:07;0.10;;;0.10;;
8502;SDS011;4289;48.664;12.700;2023-06-22T18:07:30;0.10;;;0.10;;
8502;SDS011;4289;48.664;12.700;2023-06-22T18:10:56;0.10;;;0.10;;
8502;SDS011;4289;48.664;12.700;2023-06-22T18:14:20;0.10;;;0.10;;
8502;SDS011;4289;48.664;12.700;2023-06-22T18:17:43;0.10;;;0.10;;
8502;SDS011;4289;48.664;12.700;2023-06-22T18:21:07;0.00;;;0.00;;
8502;SDS011;4289;48.664;12.700;2023-06-22T18:24:29;0.00;;;0.00;;
8502;SDS011;4289;48.664;12.700;2023-06-22T18:27:55;0.10;;;0.10;;
8502;SDS011;4289;48.664;12.700;2023-06-22T18:31:18;0.10;;;0.10;;
8502;SDS011;4289;48.664;12.700;2023-06-22T18:34:41;0.00;;;0.00;;
8502;SDS011;4289;48.664;12.700;2023-06-22T18:38:04;0.10;;;0.10;;
8502;SDS011;4289;48.664;12.700;2023-06-22T18:41:32;0.10;;;0.10;;
8502;SDS011;4289;48.664;12.700;2023-06-22T18:44:57;0.10;;;0.10;;
8502;SDS011;4289;48.664;12.700;2023-06-22T18:48:22;0.00;;;0.00;;
8502;SDS011;4289;48.664;12.700;2023-06-22T18:51:48;0.00;;;0.00;;
8502;SDS011;4289;48.664;12.700;2023-06-22T18:55:21;0.00;;;0.00;;
8502;SDS011;4289;48.664;12.700;2023-06-22T18:58:56;0.00;;;0.00;;
8502;SDS011;4289;48.664;12.700;2023-06-22T19:02:39;0.00;;;0.00;;
8502;SDS011;4289;48.664;12.700;2023-06-22T19:06:04;0.10;;;0.10;;
8502;SDS011;4289;48.664;12.700;2023-06-22T19:09:26;0.00;;;0.00;;
8502;SDS011;4289;48.664;12.700;2023-06-22T19:12:52;0.00;;;0.00;;
8502;SDS011;4289;48.664;12.700;2023-06-22T19:16:15;0.32;;;0.32;;
8502;SDS011;4289;48.664;12.700;2023-06-22T19:19:39;0.00;;;0.00;;
8502;SDS011;4289;48.664;12.700;2023-06-22T19:23:02;0.00;;;0.00;;
8502;SDS011;4289;48.664;12.700;2023-06-22T19:26:24;0.00;;;0.00;;
8502;SDS011;4289;48.664;12.700;2023-06-22T19:29:47;0.00;;;0.00;;
8502;SDS011;4289;48.664;12.700;2023-06-22T19:33:14;0.00;;;0.00;;
8502;SDS011;4289;48.664;12.700;2023-06-22T19:36:38;0.00;;;0.00;;
8502;SDS011;4289;48.664;12.700;2023-06-22T19:40:01;0.00;;;0.00;;
8502;SDS011;4289;48.664;12.700;2023-06-22T19:43:26;0.00;;;0.00;;
8502;SDS011;4289;48.664;12.700;2023-06-22T19:46:49;0.00;;;0.00;;
8502;SDS011;4289;48.664;12.700;2023-06-22T19:50:15;0.00;;;0.00;;
8502;SDS011;4289;48.664;12.700;2023-06-22T19:53:41;0.00;;;0.00;;
8502;SDS011;4289;48.664;12.700;2023-06-22T19:57:06;0.00;;;0.00;;
8502;SDS011;4289;48.664;12.700;2023-06-22T20:00:41;0.00;;;0.00;;
8502;SDS011;4289;48.664;12.700;2023-06-22T20:04:07;0.00;;;0.00;;
8502;SDS011;4289;48.664;12.700;2023-06-22T20:07:33;0.00;;;0.00;;
8502;SDS011;4289;48.664;12.700;2023-06-22T20:10:59;0.00;;;0.00;;
8502;SDS011;4289;48.664;12.700;2023-06-22T20:14:29;0.00;;;0.00;;
8502;SDS011;4289;48.664;12.700;2023-06-22T20:17:52;0.00;;;0.00;;
8502;SDS011;4289;48.664;12.700;2023-06-22T20:21:24;0.00;;;0.00;;
8502;SDS011;4289;48.664;12.700;2023-06-22T20:24:47;0.00;;;0.00;;
8502;SDS011;4289;48.664;12.700;2023-06-22T20:28:11;0.00;;;0.00;;
8502;SDS011;4289;48.664;12.700;2023-06-22T20:31:34;0.00;;;0.00;;
8502;SDS011;4289;48.664;12.700;2023-06-22T20:34:57;0.00;;;0.00;;
8502;SDS011;4289;48.664;12.700;2023-06-22T20:38:19;0.00;;;0.00;;
8502;SDS011;4289;48.664;12.700;2023-06-22T20:41:43;0.00;;;0.00;;
8502;SDS011;4289;48.664;12.700;2023-06-22T20:45:08;0.00;;;0.00;;